Time;durP1;ratioP1;P1;durP2;ratioP2;P2;SDS_P1;SDS_P2;PMS_P1;PMS_P2;Temp;Humidity;BMP_temperature;BMP_pressure;BME280_temperature;BME280_humidity;BME280_pressure;Samples;Min_cycle;Max_cycle;Signal;HPM_P1;HPM_P2
2022/04/02 00:02:20;;;;;;;1.80;1.70;;;2.20;98.70;1.30;97043.00;;;;5033763;28;20192;-71
2022/04/02 00:04:48;;;;;;;1.73;1.63;;;2.10;98.90;1.30;97042.00;;;;5034057;28;20283;-71
2022/04/02 00:07:15;;;;;;;1.30;1.30;;;2.20;99.30;1.50;97010.00;;;;5033732;28;20583;-70
2022/04/02 00:09:41;;;;;;;2.53;2.37;;;2.20;98.80;1.50;97048.00;;;;5033790;28;20256;-71
2022/04/02 00:12:09;;;;;;;1.37;1.27;;;2.30;98.90;1.50;97032.00;;;;5016076;28;20200;-71
2022/04/02 00:14:36;;;;;;;1.77;1.67;;;2.30;98.40;1.50;97019.00;;;;5033701;28;20209;-71
2022/04/02 00:17:03;;;;;;;1.20;1.20;;;2.20;98.10;1.40;97040.00;;;;5015918;28;20225;-71
2022/04/02 00:19:30;;;;;;;1.20;1.20;;;2.20;97.30;1.20;97044.00;;;;5016311;28;20687;-71
2022/04/02 00:21:58;;;;;;;0.73;0.73;;;2.20;97.90;1.40;97045.00;;;;5016404;28;20637;-71
2022/04/02 00:24:24;;;;;;;1.97;1.43;;;2.20;98.50;1.30;97042.00;;;;5033491;28;20235;-71
2022/04/02 00:26:51;;;;;;;1.97;1.87;;;2.20;98.30;1.40;97019.00;;;;5016265;28;20716;-71
2022/04/02 00:29:20;;;;;;;2.93;2.23;;;2.20;98.20;1.40;97042.00;;;;5016057;28;20267;-71
2022/04/02 00:31:48;;;;;;;1.17;1.17;;;2.30;97.90;1.40;97042.00;;;;5017261;28;20208;-72
2022/04/02 00:34:17;;;;;;;1.90;1.43;;;2.20;97.70;1.40;97042.00;;;;5033856;28;20201;-71
2022/04/02 00:36:45;;;;;;;1.13;1.13;;;2.20;97.90;1.40;97041.00;;;;5016043;28;20608;-71
2022/04/02 00:39:12;;;;;;;1.13;1.13;;;2.20;97.60;1.30;97037.00;;;;5015994;28;20297;-71
2022/04/02 00:41:39;;;;;;;2.03;1.93;;;2.20;97.80;1.40;97040.00;;;;5033316;28;20242;-71
2022/04/02 00:44:14;;;;;;;1.67;1.57;;;2.20;98.20;1.40;96988.00;;;;5033271;28;20212;-71
2022/04/02 00:46:43;;;;;;;1.60;1.53;;;2.20;98.10;1.40;97010.00;;;;5033191;28;20254;-71
2022/04/02 00:49:11;;;;;;;2.63;2.27;;;2.20;98.00;1.30;97023.00;;;;5033295;28;20251;-71
2022/04/02 00:51:41;;;;;;;1.20;1.20;;;2.20;97.90;1.30;97042.00;;;;5033411;28;20662;-71
2022/04/02 00:54:09;;;;;;;1.30;1.30;;;2.20;98.50;1.40;97025.00;;;;5033248;28;20209;-71
2022/04/02 00:56:40;;;;;;;1.87;1.77;;;2.10;98.30;1.30;97031.00;;;;5015615;28;20701;-74
2022/04/02 00:59:08;;;;;;;1.27;1.27;;;2.10;98.60;1.40;97047.00;;;;5015849;28;20571;-71
2022/04/02 01:01:35;;;;;;;1.37;1.27;;;2.30;98.70;1.30;97042.00;;;;5015814;28;20672;-71
2022/04/02 01:04:03;;;;;;;1.87;1.77;;;2.20;98.10;1.50;97022.00;;;;5033058;28;20223;-71
2022/04/02 01:06:31;;;;;;;1.43;1.43;;;2.20;98.70;1.50;97043.00;;;;5015556;28;20583;-71
2022/04/02 01:08:58;;;;;;;1.50;1.40;;;2.30;98.20;1.30;97042.00;;;;5033035;28;20567;-71
2022/04/02 01:11:36;;;;;;;2.13;2.00;;;2.20;97.90;1.20;97001.00;;;;5015911;28;20704;-71
2022/04/02 01:14:03;;;;;;;1.40;1.40;;;2.20;97.90;1.40;97005.00;;;;5032997;28;20360;-71
2022/04/02 01:16:30;;;;;;;1.30;1.27;;;2.20;97.70;1.40;97042.00;;;;5032940;28;20213;-71
2022/04/02 01:18:57;;;;;;;1.20;1.20;;;2.20;98.70;1.40;97042.00;;;;5015508;28;20675;-71
2022/04/02 01:21:24;;;;;;;1.30;1.30;;;2.20;97.90;1.50;97049.00;;;;5032901;28;20201;-71
2022/04/02 01:23:54;;;;;;;1.13;1.13;;;2.30;97.90;1.40;97060.00;;;;5032819;28;20208;-72
2022/04/02 01:26:21;;;;;;;1.40;1.40;;;2.30;97.50;1.50;97042.00;;;;5032727;28;20699;-71
2022/04/02 01:28:53;;;;;;;1.33;1.33;;;2.30;98.00;1.30;97025.00;;;;5018106;28;20231;-71
2022/04/02 01:31:21;;;;;;;1.60;1.50;;;2.20;97.50;1.40;97049.00;;;;5036171;28;20205;-71
2022/04/02 01:33:49;;;;;;;1.57;1.47;;;2.20;97.90;1.30;97053.00;;;;5018679;28;20209;-71
2022/04/02 01:36:20;;;;;;;2.17;2.07;;;2.20;98.20;1.40;97056.00;;;;5036486;28;20216;-72
2022/04/02 01:38:47;;;;;;;1.30;1.30;;;2.20;98.00;1.50;97061.00;;;;5036184;28;20239;-71
2022/04/02 01:41:15;;;;;;;1.37;1.37;;;2.30;98.20;1.40;97061.00;;;;5036140;28;20233;-71
2022/04/02 01:43:42;;;;;;;1.17;1.17;;;2.30;97.50;1.50;97060.00;;;;5036003;28;20200;-71
2022/04/02 01:46:12;;;;;;;1.37;1.27;;;2.30;97.60;1.50;97035.00;;;;5036029;28;20217;-71
2022/04/02 01:48:40;;;;;;;1.43;1.00;;;2.30;97.20;1.40;97037.00;;;;5036098;28;20206;-71
2022/04/02 01:51:07;;;;;;;1.20;1.07;;;2.30;97.10;1.40;97062.00;;;;5018609;28;20533;-70
2022/04/02 01:53:35;;;;;;;1.80;1.70;;;2.20;97.20;1.50;97064.00;;;;5035746;28;20319;-70
2022/04/02 01:56:01;;;;;;;1.17;1.17;;;2.20;97.60;1.20;97064.00;;;;5035668;28;20232;-71
2022/04/02 01:58:31;;;;;;;1.07;1.07;;;2.20;97.10;1.30;97059.00;;;;5035615;28;20608;-71
2022/04/02 02:00:58;;;;;;;1.67;1.57;;;2.10;97.80;1.40;97061.00;;;;5035932;28;20274;-71
2022/04/02 02:03:25;;;;;;;1.47;1.43;;;2.20;97.70;1.20;97052.00;;;;5035544;28;20262;-71
2022/04/02 02:05:53;;;;;;;3.30;1.53;;;2.20;96.90;1.30;97064.00;;;;5035539;28;20216;-71
2022/04/02 02:08:23;;;;;;;1.80;1.60;;;2.20;97.20;1.40;97066.00;;;;5035592;28;20228;-72
2022/04/02 02:10:49;;;;;;;1.70;1.60;;;2.20;97.60;1.40;97059.00;;;;5018244;28;20222;-72
2022/04/02 02:13:16;;;;;;;1.67;1.57;;;2.20;97.20;1.50;97029.00;;;;5018094;28;20205;-72
2022/04/02 02:15:43;;;;;;;2.17;1.63;;;2.30;97.00;1.40;97074.00;;;;5035378;28;20235;-72
2022/04/02 02:18:10;;;;;;;1.80;1.70;;;2.30;95.80;1.30;97070.00;;;;5017974;28;20211;-71
2022/04/02 02:20:37;;;;;;;1.20;1.20;;;2.20;96.30;1.30;97073.00;;;;5035537;28;20263;-71
2022/04/02 02:23:03;;;;;;;1.27;1.27;;;2.20;96.40;1.30;97079.00;;;;5035257;28;20208;-71
2022/04/02 02:25:30;;;;;;;1.43;1.33;;;2.20;97.10;1.30;97079.00;;;;5018004;28;20232;-72
2022/04/02 02:27:58;;;;;;;1.00;1.00;;;2.10;96.90;1.30;97089.00;;;;5035237;28;20211;-71
2022/04/02 02:30:25;;;;;;;1.90;1.80;;;2.20;97.00;1.20;97082.00;;;;5018043;28;20209;-71
2022/04/02 02:35:49;;;;;;;1.40;1.40;;;2.10;96.50;1.30;97061.00;;;;5017730;28;20518;-72
2022/04/02 02:35:51;;;;;;;1.00;1.00;;;2.20;96.90;1.30;97090.00;;;;5017746;28;20303;-72
2022/04/02 02:38:20;;;;;;;18.50;1.53;;;2.20;96.70;1.30;97105.00;;;;5017267;28;20223;-72
2022/04/02 02:40:51;;;;;;;1.37;1.37;;;2.10;97.00;1.40;97096.00;;;;5034570;28;20198;-71
2022/04/02 02:43:19;;;;;;;1.77;1.67;;;2.20;97.10;1.20;97098.00;;;;5017652;28;20216;-72
2022/04/02 02:45:46;;;;;;;1.07;1.07;;;2.20;96.30;1.30;97095.00;;;;5034876;28;20259;-71
2022/04/02 02:48:13;;;;;;;0.90;0.90;;;2.10;96.50;1.20;97097.00;;;;5035128;28;20227;-71
2022/04/02 02:50:42;;;;;;;1.00;1.00;;;2.10;96.30;1.20;97060.00;;;;5034971;28;20193;-71
2022/04/02 02:53:10;;;;;;;1.30;1.30;;;2.10;96.90;1.20;97091.00;;;;5017531;28;20228;-71
2022/04/02 02:55:36;;;;;;;1.10;1.10;;;2.10;96.50;1.20;97069.00;;;;5017381;28;20232;-71
2022/04/02 02:58:04;;;;;;;1.10;1.00;;;2.00;96.90;1.20;97097.00;;;;5017242;28;20287;-72
2022/04/02 03:00:31;;;;;;;1.73;1.63;;;2.10;96.40;1.20;97094.00;;;;5017563;28;20212;-72
2022/04/02 03:02:58;;;;;;;2.43;2.23;;;2.00;96.40;1.20;97107.00;;;;5034739;28;20201;-71
2022/04/02 03:05:25;;;;;;;1.60;1.20;;;2.00;96.40;1.30;97107.00;;;;5017255;28;20251;-72
2022/04/02 03:07:52;;;;;;;0.90;0.90;;;2.10;96.50;1.20;97102.00;;;;5034950;28;20231;-72
2022/04/02 03:10:22;;;;;;;0.93;0.93;;;2.00;96.10;1.20;97099.00;;;;5034580;28;20248;-72
2022/04/02 03:12:51;;;;;;;1.00;1.00;;;2.10;96.30;1.20;97074.00;;;;5018463;28;20248;-72
2022/04/02 03:15:18;;;;;;;1.70;1.60;;;2.00;96.10;1.30;97105.00;;;;5020700;28;20201;-71
2022/04/02 03:17:48;;;;;;;2.20;1.57;;;2.10;96.40;1.20;97104.00;;;;5036517;28;20213;-71
2022/04/02 03:20:18;;;;;;;1.33;1.23;;;2.00;95.80;1.20;97113.00;;;;5036465;28;20318;-72
2022/04/02 03:22:48;;;;;;;1.67;1.57;;;2.00;96.20;1.10;97107.00;;;;5036694;28;20204;-71
2022/04/02 03:25:17;;;;;;;1.40;1.30;;;2.00;96.40;1.30;97112.00;;;;5038389;28;20318;-72
2022/04/02 03:27:46;;;;;;;1.43;1.33;;;2.10;96.60;1.20;97114.00;;;;5034939;28;20220;-72
2022/04/02 03:30:18;;;;;;;2.97;1.83;;;2.00;96.10;1.20;97110.00;;;;5034590;28;20290;-70
2022/04/02 03:32:46;;;;;;;1.73;1.63;;;2.00;96.00;1.10;97125.00;;;;5034191;28;20236;-70
2022/04/02 03:35:14;;;;;;;1.60;1.50;;;2.00;96.70;1.20;97121.00;;;;5034328;28;20505;-70
2022/04/02 03:37:43;;;;;;;1.53;1.50;;;2.00;96.80;1.20;97067.00;;;;5034362;28;20614;-70
2022/04/02 03:40:14;;;;;;;0.80;0.80;;;2.10;96.80;1.10;97080.00;;;;5016867;28;20636;-70
2022/04/02 03:42:42;;;;;;;1.03;1.03;;;2.00;96.90;1.00;97124.00;;;;5033075;28;20254;-70
2022/04/02 03:45:11;;;;;;;1.57;1.37;;;2.00;97.50;1.20;97130.00;;;;5016658;28;20228;-71
2022/04/02 03:47:38;;;;;;;2.30;1.80;;;2.00;97.60;1.30;97133.00;;;;5016897;28;20205;-70
2022/04/02 03:50:06;;;;;;;1.03;1.03;;;2.10;97.90;1.10;97133.00;;;;5033709;28;20200;-71
2022/04/02 03:52:33;;;;;;;3.97;2.63;;;2.00;97.50;1.20;97109.00;;;;5016610;28;20232;-71
2022/04/02 03:54:59;;;;;;;1.30;1.30;;;2.00;98.40;1.20;97141.00;;;;5016700;28;20204;-73
2022/04/02 03:57:27;;;;;;;1.40;1.30;;;2.00;98.20;1.20;97125.00;;;;5016425;28;20256;-71
2022/04/02 03:59:55;;;;;;;1.33;1.23;;;2.00;97.90;1.10;97142.00;;;;5016463;28;20200;-71
2022/04/02 04:02:24;;;;;;;1.30;1.20;;;2.00;97.90;1.00;97144.00;;;;5016379;28;20730;-71
2022/04/02 04:04:53;;;;;;;1.30;1.20;;;1.90;98.50;1.10;97140.00;;;;5033918;28;20312;-71
2022/04/02 04:07:20;;;;;;;1.00;1.00;;;2.00;98.30;1.10;97134.00;;;;5033765;28;20197;-71
2022/04/02 04:09:49;;;;;;;1.20;1.20;;;2.00;98.20;1.10;97148.00;;;;5033903;28;20236;-71
2022/04/02 04:12:17;;;;;;;1.10;1.00;;;2.00;98.20;1.10;97156.00;;;;5033665;28;20315;-71
2022/04/02 04:14:44;;;;;;;1.20;1.20;;;2.00;98.90;1.00;97157.00;;;;5033703;28;20200;-72
2022/04/02 04:17:11;;;;;;;1.00;1.00;;;2.00;98.10;1.10;97154.00;;;;5033625;28;20220;-73
2022/04/02 04:19:40;;;;;;;4.00;2.00;;;1.90;99.00;1.00;97163.00;;;;5016467;28;20212;-72
2022/04/02 04:22:10;;;;;;;2.83;1.57;;;1.90;98.10;0.90;97161.00;;;;5033672;28;20192;-71
2022/04/02 04:24:36;;;;;;;1.67;1.30;;;1.80;98.00;1.00;97164.00;;;;5016057;28;20525;-72
2022/04/02 04:27:03;;;;;;;1.33;1.23;;;1.80;98.50;1.10;97170.00;;;;5033543;28;20188;-71
2022/04/02 04:29:30;;;;;;;1.17;1.17;;;1.80;98.90;1.00;97155.00;;;;5016334;28;20270;-71
2022/04/02 04:31:57;;;;;;;1.30;1.30;;;1.80;98.50;0.90;97162.00;;;;5033387;28;20225;-71
2022/04/02 04:34:24;;;;;;;1.77;1.47;;;1.80;98.70;0.90;97158.00;;;;5033673;28;20624;-71
2022/04/02 04:36:50;;;;;;;2.27;2.07;;;1.80;98.80;0.90;97162.00;;;;5016092;28;20259;-71
2022/04/02 04:39:17;;;;;;;3.47;1.67;;;1.90;98.90;1.00;97138.00;;;;5016156;28;20232;-72
2022/04/02 04:41:46;;;;;;;1.07;1.07;;;1.80;98.90;0.90;97170.00;;;;5033432;28;20327;-71
2022/04/02 04:44:12;;;;;;;1.50;1.40;;;1.80;99.00;1.10;97179.00;;;;5015902;28;20636;-71
2022/04/02 04:46:42;;;;;;;1.00;1.00;;;1.90;99.10;1.10;97183.00;;;;5033419;28;20200;-71
2022/04/02 04:49:12;;;;;;;1.90;1.80;;;1.90;98.40;1.00;97151.00;;;;5015941;28;20242;-71
2022/04/02 04:51:39;;;;;;;1.53;1.43;;;1.90;98.30;0.90;97187.00;;;;5015831;28;20228;-72
2022/04/02 04:54:07;;;;;;;0.87;0.87;;;1.80;98.20;1.00;97193.00;;;;5033186;28;20543;-71
2022/04/02 04:56:34;;;;;;;1.87;1.77;;;1.80;98.60;1.00;97186.00;;;;5033281;28;20724;-71
2022/04/02 04:59:01;;;;;;;2.50;2.30;;;1.80;98.40;1.00;97178.00;;;;5033059;28;20216;-71
2022/04/02 05:01:29;;;;;;;1.77;1.67;;;1.80;98.70;0.80;97184.00;;;;5033109;28;20220;-71
2022/04/02 05:03:56;;;;;;;1.40;1.30;;;1.80;98.50;0.90;97193.00;;;;5036190;28;20233;-71
2022/04/02 05:06:23;;;;;;;2.47;2.37;;;1.80;98.60;0.90;97193.00;;;;5036569;28;20221;-71
2022/04/02 05:08:50;;;;;;;1.20;1.20;;;1.70;99.30;0.90;97184.00;;;;5036568;28;20271;-71
2022/04/02 05:11:19;;;;;;;3.60;1.63;;;1.70;99.90;0.80;97205.00;;;;5036340;28;20307;-71
2022/04/02 05:13:45;;;;;;;1.93;1.63;;;1.80;99.70;1.00;97210.00;;;;5018928;28;20224;-71
2022/04/02 05:16:12;;;;;;;1.17;1.17;;;1.80;99.60;0.90;97211.00;;;;5019033;28;20338;-71
2022/04/02 05:18:40;;;;;;;1.67;1.57;;;1.80;99.40;1.00;97178.00;;;;5036268;28;20310;-71
2022/04/02 05:21:07;;;;;;;1.20;1.20;;;1.80;99.30;0.90;97194.00;;;;5036230;28;20204;-71
2022/04/02 05:23:36;;;;;;;1.13;1.13;;;1.80;99.10;0.90;97215.00;;;;5036354;28;20284;-71
2022/04/02 05:26:03;;;;;;;1.20;1.20;;;1.70;99.40;0.90;97212.00;;;;5018950;28;20258;-71
2022/04/02 05:28:29;;;;;;;1.83;1.73;;;1.80;99.80;1.10;97197.00;;;;5019023;28;20220;-71
2022/04/02 05:30:56;;;;;;;1.63;1.53;;;1.80;99.80;1.10;97223.00;;;;5036306;28;20208;-70
2022/04/02 05:33:22;;;;;;;1.87;1.77;;;1.90;99.30;1.00;97214.00;;;;5018837;28;20212;-70
2022/04/02 05:35:49;;;;;;;1.37;1.37;;;1.90;99.10;0.90;97214.00;;;;5018629;28;20288;-70
2022/04/02 05:38:16;;;;;;;1.10;1.10;;;1.80;99.20;0.90;97219.00;;;;5036007;28;20246;-70
2022/04/02 05:40:43;;;;;;;0.90;0.90;;;1.80;99.00;0.90;97225.00;;;;5018586;28;20291;-70
2022/04/02 05:43:10;;;;;;;1.37;1.33;;;1.80;99.20;1.20;97232.00;;;;5036086;28;20204;-71
2022/04/02 05:45:36;;;;;;;0.90;0.90;;;1.90;99.80;1.20;97237.00;;;;5035974;28;20300;-70
2022/04/02 05:48:04;;;;;;;1.60;1.50;;;1.90;99.10;1.30;97214.00;;;;5035935;28;20212;-71
2022/04/02 05:50:33;;;;;;;1.13;1.13;;;2.00;98.40;1.20;97210.00;;;;5036079;28;20636;-71
2022/04/02 05:53:01;;;;;;;1.10;1.10;;;2.00;99.10;1.20;97239.00;;;;5018385;28;20235;-72
2022/04/02 05:55:27;;;;;;;1.40;1.30;;;1.90;98.40;1.20;97213.00;;;;5018417;28;20204;-71
2022/04/02 05:57:55;;;;;;;1.50;1.47;;;2.00;97.30;1.00;97254.00;;;;5018691;28;20237;-71
2022/04/02 06:00:24;;;;;;;1.00;1.00;;;1.90;98.10;1.00;97256.00;;;;5018633;28;20625;-71
2022/04/02 06:02:51;;;;;;;1.30;1.20;;;1.90;98.00;1.20;97248.00;;;;5018429;28;20224;-71
2022/04/02 06:05:18;;;;;;;1.43;1.33;;;2.00;97.60;1.20;97224.00;;;;5018526;28;20231;-71
2022/04/02 06:07:46;;;;;;;1.70;1.60;;;2.10;97.50;1.20;97254.00;;;;5018382;28;20915;-71
2022/04/02 06:10:15;;;;;;;1.13;1.13;;;2.00;97.40;1.20;97232.00;;;;5035872;28;20236;-72
2022/04/02 06:12:41;;;;;;;2.27;2.00;;;2.00;97.90;1.30;97253.00;;;;5018367;28;20192;-71
2022/04/02 06:15:10;;;;;;;2.20;1.00;;;2.10;98.10;1.20;97258.00;;;;5018032;28;20238;-71
2022/04/02 06:17:38;;;;;;;0.90;0.90;;;2.00;97.00;1.30;97263.00;;;;5018246;28;20225;-71
2022/04/02 06:20:08;;;;;;;0.80;0.80;;;2.00;97.50;1.30;97270.00;;;;5018444;28;20232;-71
2022/04/02 06:22:36;;;;;;;0.80;0.80;;;2.10;97.20;1.40;97268.00;;;;5038883;28;20220;-70
2022/04/02 06:25:03;;;;;;;1.23;1.23;;;2.10;96.50;1.30;97260.00;;;;5019803;28;20651;-71
2022/04/02 06:27:32;;;;;;;1.30;1.30;;;2.10;96.40;1.20;97280.00;;;;5018341;28;20267;-71
2022/04/02 06:29:59;;;;;;;0.80;0.80;;;2.00;96.20;1.20;97271.00;;;;5035325;28;20252;-70
2022/04/02 06:32:26;;;;;;;0.80;0.80;;;2.10;97.20;1.40;97281.00;;;;5035235;28;20232;-70
2022/04/02 06:34:53;;;;;;;5.73;1.80;;;2.10;96.50;1.40;97267.00;;;;5017780;28;20290;-70
2022/04/02 06:37:20;;;;;;;1.27;1.27;;;2.20;96.70;1.40;97297.00;;;;5017672;28;20229;-71
2022/04/02 06:39:47;;;;;;;1.10;1.10;;;2.20;96.50;1.30;97297.00;;;;5035225;28;20232;-73
2022/04/02 06:42:13;;;;;;;1.20;1.10;;;2.20;96.00;1.40;97275.00;;;;5035085;28;20633;-72
2022/04/02 06:44:42;;;;;;;3.10;1.23;;;2.20;96.10;1.50;97306.00;;;;5017941;28;20208;-72
2022/04/02 06:47:12;;;;;;;1.30;1.27;;;2.20;96.90;1.50;97295.00;;;;5017898;28;20303;-72
2022/04/02 06:49:39;;;;;;;1.00;1.00;;;2.30;96.80;1.70;97305.00;;;;5017598;28;20236;-71
2022/04/02 06:52:06;;;;;;;1.10;1.10;;;2.30;96.30;1.50;97316.00;;;;5017518;28;20250;-71
2022/04/02 06:54:33;;;;;;;1.20;1.20;;;2.30;95.40;1.70;97314.00;;;;5034993;28;20568;-71
2022/04/02 06:57:00;;;;;;;1.20;1.17;;;2.40;96.10;1.60;97305.00;;;;5017642;28;20285;-71
2022/04/02 06:59:28;;;;;;;0.90;0.90;;;2.40;95.20;1.80;97319.00;;;;5034754;28;20208;-71
2022/04/02 07:01:55;;;;;;;1.43;1.43;;;2.50;95.80;1.70;97287.00;;;;5034901;28;20576;-71
2022/04/02 07:04:23;;;;;;;1.57;1.47;;;2.50;95.10;1.80;97314.00;;;;5034760;28;20220;-71
2022/04/02 07:06:50;;;;;;;5.23;2.43;;;2.60;94.30;1.80;97336.00;;;;5017524;28;20517;-71
2022/04/02 07:09:18;;;;;;;0.97;0.97;;;2.50;93.70;1.80;97335.00;;;;5034713;28;20694;-71
2022/04/02 07:11:45;;;;;;;0.80;0.80;;;2.50;93.90;1.90;97333.00;;;;5034719;28;20231;-71
2022/04/02 07:14:12;;;;;;;1.17;1.17;;;2.60;93.30;1.90;97343.00;;;;5034602;28;20553;-71
2022/04/02 07:16:39;;;;;;;0.90;0.90;;;2.70;93.60;2.10;97340.00;;;;5034502;28;20743;-71
2022/04/02 07:19:06;;;;;;;1.13;1.13;;;2.70;94.00;2.00;97337.00;;;;5034639;28;20212;-70
2022/04/02 07:21:34;;;;;;;1.73;1.63;;;2.70;92.60;2.10;97352.00;;;;5034411;28;20288;-71
2022/04/02 07:24:03;;;;;;;0.73;0.73;;;2.80;92.80;2.20;97351.00;;;;5034490;28;20785;-71
2022/04/02 07:26:32;;;;;;;1.50;1.40;;;2.80;93.00;2.20;97356.00;;;;5033589;28;20217;-71
2022/04/02 07:29:00;;;;;;;1.60;1.50;;;2.90;92.20;2.20;97352.00;;;;5016944;28;20257;-71
2022/04/02 07:31:26;;;;;;;0.80;0.80;;;3.00;91.90;2.20;97345.00;;;;5034339;28;20596;-72
2022/04/02 07:33:53;;;;;;;0.90;0.90;;;3.00;91.20;2.20;97329.00;;;;5034543;28;20228;-71
2022/04/02 07:36:35;;;;;;;0.70;0.70;;;2.90;91.70;2.30;97345.00;;;;5016980;28;20747;-71
2022/04/02 07:39:11;;;;;;;0.77;0.77;;;3.00;91.50;2.30;97374.00;;;;5034401;28;20221;-70
2022/04/02 07:41:43;;;;;;;1.90;1.63;;;3.00;90.70;2.30;97373.00;;;;5017136;28;20626;-71
2022/04/02 07:44:29;;;;;;;1.10;1.10;;;3.00;90.70;2.40;97382.00;;;;5034806;28;20334;-71
2022/04/02 07:47:00;;;;;;;2.03;1.13;;;3.10;90.70;2.30;97383.00;;;;5035706;28;20275;-71
2022/04/02 07:49:29;;;;;;;1.27;1.27;;;3.10;91.30;2.30;97391.00;;;;5041719;28;20250;-71
2022/04/02 07:51:57;;;;;;;0.90;0.90;;;3.10;90.80;2.10;97367.00;;;;5042319;28;20201;-73
2022/04/02 07:54:26;;;;;;;1.30;1.30;;;3.00;90.20;2.20;97394.00;;;;5044645;28;20205;-71
2022/04/02 07:57:00;;;;;;;0.70;0.70;;;2.90;91.40;2.20;97394.00;;;;5035205;28;20229;-72
2022/04/02 07:59:34;;;;;;;0.93;0.93;;;2.90;90.50;2.10;97408.00;;;;5034522;28;20225;-71
2022/04/02 08:02:01;;;;;;;0.70;0.70;;;2.80;89.80;2.10;97375.00;;;;5015992;28;20242;-71
2022/04/02 08:04:29;;;;;;;0.90;0.90;;;2.80;91.70;2.10;97414.00;;;;5033880;28;20229;-75
2022/04/02 08:06:57;;;;;;;1.33;1.23;;;2.90;91.90;2.10;97416.00;;;;5033817;28;20307;-76
2022/04/02 08:09:27;;;;;;;1.23;1.10;;;3.00;90.80;2.40;97399.00;;;;5016507;28;20221;-77
2022/04/02 08:11:56;;;;;;;1.20;1.20;;;3.10;90.30;2.20;97421.00;;;;5016245;28;20319;-78
2022/04/02 08:14:26;;;;;;;1.00;1.00;;;2.90;89.40;2.10;97421.00;;;;5016255;28;20648;-77
2022/04/02 08:16:53;;;;;;;0.90;0.90;;;2.90;89.60;2.20;97430.00;;;;5033519;28;20343;-77
2022/04/02 08:19:22;;;;;;;1.43;1.33;;;2.90;90.20;2.20;97421.00;;;;5033852;28;20619;-77
2022/04/02 08:21:49;;;;;;;1.60;1.50;;;2.90;90.40;2.30;97426.00;;;;5033869;28;20240;-78
2022/04/02 08:24:16;;;;;;;1.13;1.13;;;3.00;89.90;2.30;97441.00;;;;5033869;28;20205;-79
2022/04/02 08:27:00;;;;;;;1.20;1.20;;;3.00;89.30;2.30;97425.00;;;;5016225;28;20266;-78
2022/04/02 08:29:45;;;;;;;1.40;1.30;;;3.10;89.00;2.50;97447.00;;;;5033666;28;20215;-77
2022/04/02 08:32:26;;;;;;;1.57;1.47;;;3.10;89.60;2.60;97438.00;;;;5033845;28;20208;-78
2022/04/02 08:35:05;;;;;;;1.33;1.23;;;3.20;89.50;2.80;97408.00;;;;5016252;28;20297;-78
2022/04/02 08:38:09;;;;;;;1.60;1.50;;;3.40;88.90;2.90;97465.00;;;;5035782;28;20334;-78
2022/04/02 08:41:17;;;;;;;0.90;0.90;;;3.50;88.90;2.50;97470.00;;;;5036992;28;20200;-78
2022/04/02 08:44:49;;;;;;;1.27;1.27;;;3.50;85.60;2.60;97464.00;;;;5019489;28;20674;-78
2022/04/02 08:48:03;;;;;;;1.13;1.13;;;3.30;87.20;2.70;97470.00;;;;5027776;28;20227;-78
2022/04/02 08:50:31;;;;;;;1.27;1.27;;;3.40;88.00;2.70;97480.00;;;;5033113;28;20211;-75
2022/04/02 08:53:15;;;;;;;3.53;1.33;;;3.40;87.40;2.80;97443.00;;;;5036896;28;20338;-74
2022/04/02 08:55:49;;;;;;;1.10;1.10;;;3.40;88.00;2.90;97478.00;;;;5019414;28;20224;-77
2022/04/02 08:59:04;;;;;;;0.80;0.80;;;3.50;87.40;2.80;97490.00;;;;5019261;28;20232;-76
2022/04/02 09:01:40;;;;;;;1.87;1.30;;;3.50;86.90;2.80;97492.00;;;;4956581;28;20358;-75
2022/04/02 09:05:10;;;;;;;1.30;1.20;;;3.50;85.80;2.80;97501.00;;;;5025263;28;20237;-77
2022/04/02 09:08:48;;;;;;;1.57;1.47;;;3.50;85.40;2.80;97499.00;;;;5036648;28;20330;-77
2022/04/02 09:11:25;;;;;;;3.70;1.63;;;3.50;86.00;2.80;97501.00;;;;5019404;28;20224;-77
2022/04/02 09:14:30;;;;;;;1.50;1.50;;;3.50;84.50;3.00;97509.00;;;;5036659;28;20660;-77
2022/04/02 09:17:04;;;;;;;0.97;0.97;;;3.70;85.60;3.10;97516.00;;;;5018983;28;20228;-76
2022/04/02 09:19:52;;;;;;;1.53;1.43;;;3.70;85.60;3.00;97518.00;;;;5036452;28;20661;-73
2022/04/02 09:22:42;;;;;;;0.80;0.80;;;3.70;85.50;3.00;97517.00;;;;5018952;28;20217;-76
2022/04/02 09:25:55;;;;;;;1.43;1.33;;;3.60;84.70;3.20;97526.00;;;;5036207;28;20331;-74
2022/04/02 09:28:42;;;;;;;1.53;1.43;;;3.70;84.90;3.10;97530.00;;;;4982936;28;20305;-75
2022/04/02 09:32:31;;;;;;;6.93;1.40;;;3.80;84.80;3.00;97527.00;;;;5036066;28;20226;-74
2022/04/02 09:35:54;;;;;;;0.97;0.97;;;3.70;85.80;3.00;97535.00;;;;4947196;28;20257;-71
2022/04/02 09:38:57;;;;;;;1.20;1.20;;;3.80;85.40;3.10;97533.00;;;;5036029;28;20628;-78
2022/04/02 09:41:36;;;;;;;0.80;0.80;;;3.70;85.50;3.20;97544.00;;;;5035959;28;20656;-77
2022/04/02 09:44:37;;;;;;;0.83;0.83;;;3.80;86.20;3.30;97536.00;;;;5036187;28;20280;-77
2022/04/02 09:47:15;;;;;;;1.23;1.23;;;3.90;86.50;3.40;97538.00;;;;5036222;28;20208;-77
2022/04/02 09:49:57;;;;;;;0.83;0.83;;;4.00;84.70;3.40;97548.00;;;;5035580;28;20275;-78
2022/04/02 09:52:26;;;;;;;1.67;1.57;;;4.10;84.80;3.50;97554.00;;;;5036207;28;20297;-80
2022/04/02 09:55:06;;;;;;;1.23;1.13;;;4.10;83.60;3.70;97555.00;;;;5018751;28;20201;-78
2022/04/02 09:58:11;;;;;;;0.90;0.90;;;4.30;83.70;3.70;97561.00;;;;5035997;28;20226;-77
2022/04/02 10:00:48;;;;;;;1.43;1.33;;;4.30;82.80;3.50;97556.00;;;;5036174;28;20210;-78
2022/04/02 10:03:32;;;;;;;1.00;1.00;;;4.20;82.60;3.40;97547.00;;;;5018423;28;20309;-78
2022/04/02 10:06:23;;;;;;;0.70;0.70;;;4.20;83.50;3.50;97549.00;;;;5036049;28;20222;-79
2022/04/02 10:09:09;;;;;;;0.80;0.80;;;4.20;82.50;3.60;97536.00;;;;5018871;28;20637;-78
2022/04/02 10:11:43;;;;;;;0.93;0.93;;;4.20;83.90;3.40;97560.00;;;;5019563;28;20222;-79
2022/04/02 10:14:17;;;;;;;2.57;1.47;;;4.20;82.60;3.50;97569.00;;;;5018411;28;20208;-77
2022/04/02 10:16:50;;;;;;;1.10;1.10;;;4.20;82.80;3.40;97565.00;;;;5018683;28;20231;-77
2022/04/02 10:19:19;;;;;;;1.00;1.00;;;4.10;83.40;3.20;97581.00;;;;5035672;28;20634;-77
2022/04/02 10:21:50;;;;;;;1.07;1.07;;;4.00;82.20;3.40;97531.00;;;;5036175;28;20202;-77
2022/04/02 10:24:23;;;;;;;1.60;1.50;;;4.00;83.10;3.50;97570.00;;;;5035803;28;20209;-78
2022/04/02 10:26:54;;;;;;;1.97;1.83;;;4.10;82.80;3.40;97564.00;;;;5017877;28;20232;-76
2022/04/02 10:30:02;;;;;;;1.17;1.17;;;4.00;83.70;3.60;97578.00;;;;5035527;28;20198;-76
2022/04/02 10:32:52;;;;;;;0.80;0.80;;;4.10;82.20;3.50;97558.00;;;;5035376;28;20226;-76
2022/04/02 10:35:20;;;;;;;1.33;1.33;;;4.20;81.40;3.30;97581.00;;;;5035474;28;20291;-75
2022/04/02 10:38:09;;;;;;;0.70;0.70;;;4.10;81.60;3.10;97581.00;;;;5018236;28;20324;-75
2022/04/02 10:40:44;;;;;;;0.90;0.90;;;4.00;81.50;3.20;97586.00;;;;5041193;28;20207;-77
2022/04/02 10:43:24;;;;;;;1.10;1.10;;;4.00;82.40;2.80;97587.00;;;;5047403;28;20208;-76
2022/04/02 10:45:51;;;;;;;1.33;1.33;;;3.70;81.60;3.00;97575.00;;;;5040978;28;20233;-76
2022/04/02 10:48:27;;;;;;;0.90;0.90;;;3.90;83.30;3.10;97595.00;;;;5035870;28;20325;-78
2022/04/02 10:50:55;;;;;;;1.20;1.20;;;3.80;82.50;3.30;97544.00;;;;5035191;28;20282;-77
2022/04/02 10:53:23;;;;;;;0.90;0.90;;;3.90;82.70;3.10;97567.00;;;;5035000;28;20225;-79
2022/04/02 10:55:58;;;;;;;0.80;0.80;;;3.90;82.30;3.30;97598.00;;;;5017701;28;20218;-78
2022/04/02 10:58:26;;;;;;;0.80;0.80;;;3.90;83.20;3.40;97593.00;;;;5034994;28;20299;-76
2022/04/02 11:00:56;;;;;;;1.33;1.33;;;4.00;82.60;3.10;97594.00;;;;5033775;28;20216;-76
2022/04/02 11:03:36;;;;;;;1.00;1.00;;;4.00;81.60;3.20;97572.00;;;;5017269;28;20221;-75
2022/04/02 11:06:03;;;;;;;1.20;1.20;;;3.90;83.00;3.20;97600.00;;;;5034807;28;20281;-74
2022/04/02 11:08:31;;;;;;;0.90;0.90;;;3.90;82.60;3.00;97616.00;;;;5034799;28;20692;-74
2022/04/02 11:10:59;;;;;;;0.70;0.70;;;3.90;80.80;3.10;97601.00;;;;5034725;28;20215;-74
2022/04/02 11:13:32;;;;;;;1.63;1.07;;;3.80;81.10;3.00;97607.00;;;;5017282;28;20293;-75
2022/04/02 11:15:59;;;;;;;0.90;0.90;;;3.80;82.00;3.10;97588.00;;;;5034657;28;20580;-75
2022/04/02 11:18:26;;;;;;;1.93;1.83;;;3.80;83.40;3.10;97607.00;;;;5034543;28;20224;-75
2022/04/02 11:21:04;;;;;;;1.10;1.10;;;3.80;83.30;3.40;97609.00;;;;5034514;28;20255;-75
2022/04/02 11:23:56;;;;;;;1.63;1.53;;;4.00;83.90;3.50;97613.00;;;;5034798;28;20232;-75
2022/04/02 11:26:30;;;;;;;1.90;1.67;;;4.10;83.40;3.50;97608.00;;;;5017213;28;20587;-75
2022/04/02 11:29:03;;;;;;;0.87;0.87;;;4.10;82.60;3.60;97617.00;;;;5034735;28;20206;-75
2022/04/02 11:31:30;;;;;;;1.67;1.57;;;4.30;82.40;3.80;97611.00;;;;5034736;28;20328;-75
2022/04/02 11:33:58;;;;;;;0.83;0.83;;;4.30;81.70;3.80;97620.00;;;;5034389;28;20225;-76